createdAt,value
2023-02-21T00:00:07.985Z,28.65
2023-02-21T00:02:56.166Z,25.32
2023-02-21T00:05:44.505Z,26.70
2023-02-21T00:08:33.402Z,26.87
2023-02-21T00:11:23.816Z,25.48
2023-02-21T00:14:11.507Z,26.17
2023-02-21T00:17:03.606Z,25.57
2023-02-21T00:19:52.487Z,27.70
2023-02-21T00:22:41.004Z,24.32
2023-02-21T00:25:32.451Z,25.80
2023-02-21T00:28:22.181Z,24.23
2023-02-21T00:31:10.924Z,26.80
2023-02-21T00:33:59.457Z,24.85
2023-02-21T00:36:47.996Z,25.08
2023-02-21T00:39:38.684Z,24.25
2023-02-21T00:42:27.442Z,23.12
2023-02-21T00:45:16.491Z,24.98
2023-02-21T00:48:05.062Z,25.12
2023-02-21T00:50:53.701Z,24.55
2023-02-21T00:53:45.787Z,26.45
2023-02-21T00:56:35.184Z,24.10
2023-02-21T00:59:30.837Z,24.32
2023-02-21T01:02:22.555Z,23.70
2023-02-21T01:05:10.932Z,24.07
2023-02-21T01:15:11.086Z,24.15
2023-02-21T01:17:59.879Z,22.75
2023-02-21T01:20:48.404Z,22.82
2023-02-21T01:23:37.570Z,24.23
2023-02-21T01:26:27.342Z,24.12
2023-02-21T01:29:21.566Z,22.45
2023-02-21T01:32:10.930Z,26.60
2023-02-21T01:34:59.605Z,25.23
2023-02-21T01:37:50.059Z,23.27
2023-02-21T01:40:39.142Z,24.52
2023-02-21T01:43:39.617Z,24.30
2023-02-21T01:46:36.589Z,22.93
2023-02-21T01:49:34.226Z,23.32
2023-02-21T01:52:24.777Z,22.35
2023-02-21T01:58:44.069Z,22.10
2023-02-21T02:01:36.413Z,23.07
2023-02-21T02:04:25.479Z,23.57
2023-02-21T02:07:14.834Z,21.85
2023-02-21T02:10:03.803Z,21.17
2023-02-21T02:12:48.737Z,21.45
2023-02-21T02:15:47.626Z,21.87
2023-02-21T02:18:27.268Z,22.15
2023-02-21T02:21:18.431Z,22.65
2023-02-21T02:24:03.933Z,21.68
2023-02-21T02:26:55.634Z,21.57
2023-02-21T02:29:33.052Z,21.05
2023-02-21T02:32:12.443Z,21.90
2023-02-21T02:35:00.958Z,20.65
2023-02-21T02:37:40.103Z,20.85
2023-02-21T02:40:15.898Z,21.00
2023-02-21T02:43:08.732Z,21.10
2023-02-21T02:45:54.295Z,19.07
2023-02-21T02:48:28.164Z,20.15
2023-02-21T02:51:01.118Z,19.50
2023-02-21T02:53:32.908Z,18.02
2023-02-21T02:56:06.264Z,16.70
2023-02-21T02:58:39.778Z,16.55
2023-02-21T03:01:22.028Z,16.95
2023-02-21T03:04:16.864Z,16.20
2023-02-21T03:07:19.441Z,16.80
2023-02-21T03:10:14.097Z,16.48
2023-02-21T03:12:56.631Z,15.90
2023-02-21T03:15:52.220Z,15.32
2023-02-21T03:18:42.067Z,15.65
2023-02-21T03:21:19.763Z,16.35
2023-02-21T03:23:56.205Z,16.75
2023-02-21T03:29:18.793Z,16.60
2023-02-21T03:31:52.802Z,16.48
2023-02-21T03:34:23.794Z,15.80
2023-02-21T03:36:57.782Z,16.82
2023-02-21T03:39:29.161Z,17.02
2023-02-21T03:42:01.087Z,16.30
2023-02-21T03:44:32.174Z,16.37
2023-02-21T03:47:03.393Z,16.07
2023-02-21T03:49:34.402Z,17.02
2023-02-21T03:52:05.645Z,16.70
2023-02-21T03:54:36.880Z,16.57
2023-02-21T03:57:07.847Z,16.67
2023-02-21T04:02:28.423Z,16.62
2023-02-21T04:05:19.496Z,17.15
2023-02-21T04:07:50.733Z,15.93
2023-02-21T04:10:21.780Z,16.55
2023-02-21T04:12:54.141Z,16.67
2023-02-21T04:15:25.225Z,16.60
2023-02-21T04:17:56.313Z,16.07
2023-02-21T04:20:27.494Z,16.02
2023-02-21T04:23:03.523Z,16.52
2023-02-21T04:25:30.656Z,16.00
2023-02-21T04:28:04.038Z,15.48
2023-02-21T04:30:35.236Z,16.05
2023-02-21T04:33:06.156Z,16.50
2023-02-21T04:35:36.852Z,16.05
2023-02-21T04:38:07.671Z,15.75
2023-02-21T04:40:38.605Z,15.80
2023-02-21T04:43:09.561Z,16.45
2023-02-21T04:45:59.451Z,14.58
2023-02-21T04:48:30.368Z,14.70
2023-02-21T04:51:15.971Z,14.30
2023-02-21T04:53:33.912Z,14.65
2023-02-21T04:56:04.945Z,14.45
2023-02-21T04:59:17.360Z,14.53
2023-02-21T05:01:50.890Z,14.70
2023-02-21T05:04:21.837Z,14.00
2023-02-21T05:06:53.052Z,14.75
2023-02-21T05:09:23.974Z,13.70
2023-02-21T05:11:54.826Z,13.32
2023-02-21T05:14:25.695Z,13.05
2023-02-21T05:16:58.865Z,14.00
2023-02-21T05:19:29.737Z,13.03
2023-02-21T05:22:02.136Z,14.70
2023-02-21T05:24:33.504Z,13.88
2023-02-21T05:27:07.850Z,13.68
2023-02-21T05:29:38.822Z,13.90
2023-02-21T05:32:09.721Z,14.78
2023-02-21T05:34:41.848Z,12.82
2023-02-21T05:37:13.170Z,14.03
2023-02-21T05:39:44.613Z,13.45
2023-02-21T05:42:15.787Z,13.43
2023-02-21T05:44:50.618Z,13.35
2023-02-21T05:47:22.081Z,14.33
2023-02-21T05:49:57.882Z,13.58
2023-02-21T05:52:31.165Z,12.57
2023-02-21T05:55:02.133Z,13.13
2023-02-21T05:57:35.839Z,11.83
2023-02-21T06:00:07.554Z,12.20
2023-02-21T06:02:38.844Z,11.90
2023-02-21T06:05:10.202Z,12.03
2023-02-21T06:07:44.550Z,12.28
2023-02-21T06:10:15.683Z,12.40
2023-02-21T06:12:46.801Z,12.28
2023-02-21T06:15:17.892Z,11.97
2023-02-21T06:17:49.060Z,12.28
2023-02-21T06:20:20.095Z,11.80
2023-02-21T06:22:51.123Z,12.37
2023-02-21T06:25:25.687Z,12.53
2023-02-21T06:27:56.622Z,12.30
2023-02-21T06:30:27.842Z,13.53
2023-02-21T06:32:59.211Z,11.83
2023-02-21T06:35:32.266Z,11.95
2023-02-21T06:38:03.304Z,12.18
2023-02-21T06:40:34.483Z,12.78
2023-02-21T06:43:05.741Z,12.90
2023-02-21T06:45:37.030Z,12.65
2023-02-21T06:48:09.468Z,13.05
2023-02-21T06:50:41.182Z,11.85
2023-02-21T06:53:13.799Z,11.55
2023-02-21T06:55:44.709Z,11.50
2023-02-21T06:58:16.148Z,10.65
2023-02-21T07:00:47.290Z,11.28
2023-02-21T07:03:18.462Z,10.53
2023-02-21T07:05:49.688Z,10.72
2023-02-21T07:08:21.016Z,11.33
2023-02-21T07:11:10.311Z,10.23
2023-02-21T07:13:42.945Z,10.38
2023-02-21T07:16:15.742Z,10.70
2023-02-21T07:18:47.323Z,10.78
2023-02-21T07:21:35.118Z,10.10
2023-02-21T07:24:07.325Z,10.82
2023-02-21T07:26:39.821Z,10.95
2023-02-21T07:29:17.266Z,10.63
2023-02-21T07:32:08.516Z,10.85
2023-02-21T07:37:43.001Z,10.80
2023-02-21T07:40:39.543Z,11.03
2023-02-21T07:43:21.894Z,11.22
2023-02-21T07:46:11.398Z,10.43
2023-02-21T07:48:43.484Z,18.80
2023-02-21T07:51:15.788Z,10.30
2023-02-21T07:53:47.890Z,10.23
2023-02-21T07:56:20.256Z,10.05
2023-02-21T07:58:52.826Z,11.10
2023-02-21T08:01:26.352Z,10.78
2023-02-21T08:03:58.035Z,10.43
2023-02-21T08:06:29.827Z,11.73
2023-02-21T08:09:01.528Z,10.30
2023-02-21T08:11:33.448Z,9.98
2023-02-21T08:16:46.530Z,9.88
2023-02-21T08:19:18.483Z,10.38
2023-02-21T08:21:50.372Z,10.88
2023-02-21T08:24:21.917Z,10.78
2023-02-21T08:26:55.871Z,11.10
2023-02-21T08:29:27.244Z,10.85
2023-02-21T08:31:58.410Z,10.53
2023-02-21T08:34:30.896Z,10.30
2023-02-21T08:37:06.224Z,11.28
2023-02-21T08:39:38.109Z,10.45
2023-02-21T08:42:10.518Z,10.98
2023-02-21T08:44:41.727Z,10.08
2023-02-21T08:47:13.031Z,10.48
2023-02-21T08:49:46.496Z,11.57
2023-02-21T08:52:20.718Z,9.98
2023-02-21T08:54:53.033Z,10.30
2023-02-21T08:57:24.571Z,10.45
2023-02-21T08:59:56.146Z,10.35
2023-02-21T09:02:31.657Z,9.68
2023-02-21T09:05:02.544Z,9.63
2023-02-21T09:07:40.603Z,9.55
2023-02-21T09:10:15.269Z,9.70
2023-02-21T09:12:46.487Z,10.32
2023-02-21T09:15:20.635Z,11.22
2023-02-21T09:17:51.980Z,11.12
2023-02-21T09:20:27.862Z,11.35
2023-02-21T09:23:01.432Z,11.07
2023-02-21T09:25:32.423Z,10.70
2023-02-21T09:28:03.357Z,10.80
2023-02-21T09:30:34.255Z,11.53
2023-02-21T09:33:10.411Z,10.68
2023-02-21T09:35:42.628Z,11.25
2023-02-21T09:38:24.686Z,11.18
2023-02-21T09:41:04.891Z,11.80
2023-02-21T09:43:42.891Z,11.70
2023-02-21T09:46:36.616Z,11.80
2023-02-21T09:49:09.964Z,11.33
2023-02-21T09:51:45.606Z,11.90
2023-02-21T09:54:27.260Z,11.12
2023-02-21T09:57:00.823Z,10.72
2023-02-21T09:59:32.560Z,11.63
2023-02-21T10:02:22.438Z,12.07
2023-02-21T10:05:07.528Z,10.82
2023-02-21T10:08:05.552Z,11.22
2023-02-21T10:10:45.503Z,11.35
2023-02-21T10:13:42.915Z,11.33
2023-02-21T10:16:19.299Z,10.55
2023-02-21T10:19:07.920Z,10.93
2023-02-21T10:21:44.168Z,11.00
2023-02-21T10:24:23.211Z,11.68
2023-02-21T10:27:11.522Z,12.15
2023-02-21T10:30:10.972Z,11.03
2023-02-21T10:32:58.949Z,11.68
2023-02-21T10:35:31.469Z,11.53
2023-02-21T10:38:03.948Z,11.78
2023-02-21T10:40:49.163Z,11.08
2023-02-21T10:43:25.111Z,11.55
2023-02-21T10:46:31.560Z,11.73
2023-02-21T10:49:14.023Z,12.28
2023-02-21T10:51:44.795Z,11.60
2023-02-21T10:54:26.983Z,11.93
2023-02-21T10:57:00.248Z,11.80
2023-02-21T10:59:36.606Z,11.28
2023-02-21T11:02:11.438Z,10.65
2023-02-21T11:04:42.690Z,11.68
2023-02-21T11:07:18.130Z,10.80
2023-02-21T11:09:50.758Z,12.13
2023-02-21T11:12:29.667Z,13.32
2023-02-21T11:15:10.254Z,14.50
2023-02-21T11:17:42.392Z,14.80
2023-02-21T11:20:24.869Z,13.68
2023-02-21T11:22:58.182Z,14.10
2023-02-21T11:25:34.206Z,14.55
2023-02-21T11:28:10.658Z,13.45
2023-02-21T11:30:44.177Z,13.75
2023-02-21T11:33:15.153Z,13.98
2023-02-21T11:35:48.409Z,13.08
2023-02-21T11:38:35.352Z,16.87
2023-02-21T11:41:20.372Z,17.75
2023-02-21T11:43:53.578Z,14.70
2023-02-21T11:46:41.865Z,13.00
2023-02-21T11:49:27.293Z,12.10
2023-02-21T11:52:00.733Z,13.80
2023-02-21T11:54:33.275Z,12.73
2023-02-21T11:57:21.517Z,12.60
2023-02-21T12:00:25.180Z,12.47
2023-02-21T12:03:14.863Z,14.50
2023-02-21T12:06:05.944Z,14.65
2023-02-21T12:08:52.043Z,14.70
2023-02-21T12:11:37.992Z,13.68
2023-02-21T12:14:37.116Z,13.88
2023-02-21T12:17:41.506Z,13.78
2023-02-21T12:20:27.088Z,13.55
2023-02-21T12:23:14.313Z,13.87
2023-02-21T12:26:16.328Z,13.95
2023-02-21T12:29:07.394Z,13.35
2023-02-21T12:31:40.662Z,13.78
2023-02-21T12:34:41.118Z,13.32
2023-02-21T12:37:27.372Z,13.75
2023-02-21T12:40:31.123Z,12.95
2023-02-21T12:43:24.486Z,13.60
2023-02-21T12:46:05.576Z,13.20
2023-02-21T12:48:59.590Z,13.53
2023-02-21T12:51:32.813Z,12.78
2023-02-21T12:54:18.942Z,14.35
2023-02-21T12:56:58.842Z,13.68
2023-02-21T12:59:32.111Z,13.50
2023-02-21T13:02:09.998Z,14.28
2023-02-21T13:04:49.208Z,14.78
2023-02-21T13:07:45.089Z,14.23
2023-02-21T13:10:38.039Z,13.80
2023-02-21T13:13:17.442Z,14.83
2023-02-21T13:15:49.835Z,14.40
2023-02-21T13:18:26.107Z,16.05
2023-02-21T13:20:59.789Z,17.92
2023-02-21T13:24:00.501Z,15.83
2023-02-21T13:26:33.827Z,20.37
2023-02-21T13:29:04.736Z,22.77
2023-02-21T13:31:40.482Z,21.37
2023-02-21T13:34:13.830Z,24.15
2023-02-21T13:36:47.579Z,23.30
2023-02-21T13:39:28.261Z,24.20
2023-02-21T13:42:04.581Z,24.52
2023-02-21T13:44:42.400Z,19.27
2023-02-21T13:47:18.581Z,38.80
2023-02-21T13:52:27.666Z,32.40
2023-02-21T13:57:35.243Z,21.82
2023-02-21T14:00:24.848Z,21.45
2023-02-21T14:03:07.384Z,20.72
2023-02-21T14:05:52.481Z,19.23
2023-02-21T14:08:28.899Z,21.68
2023-02-21T14:11:11.689Z,21.95
2023-02-21T14:13:44.974Z,22.17
2023-02-21T14:16:22.308Z,23.87
2023-02-21T14:18:55.568Z,24.25
2023-02-21T14:21:47.290Z,23.45
2023-02-21T14:24:29.897Z,25.02
2023-02-21T14:27:18.242Z,25.15
2023-02-21T14:30:06.527Z,27.22
2023-02-21T14:32:58.478Z,27.98
2023-02-21T14:35:40.271Z,26.93
2023-02-21T14:38:19.564Z,28.17
2023-02-21T14:41:17.125Z,30.10
2023-02-21T14:43:50.559Z,31.30
2023-02-21T14:46:43.602Z,33.20
2023-02-21T14:49:39.600Z,35.73
2023-02-21T14:52:21.733Z,38.20
2023-02-21T14:55:32.718Z,40.92
2023-02-21T14:58:03.374Z,39.95
2023-02-21T15:00:39.606Z,41.05
2023-02-21T15:03:25.126Z,42.38
2023-02-21T15:06:03.959Z,40.05
2023-02-21T15:08:45.710Z,41.37
2023-02-21T15:11:30.615Z,42.35
2023-02-21T15:14:25.274Z,41.68
2023-02-21T15:17:01.019Z,43.50
2023-02-21T15:19:37.754Z,41.33
2023-02-21T15:25:13.698Z,42.38
2023-02-21T15:27:52.732Z,42.45
2023-02-21T15:30:38.049Z,43.40
2023-02-21T15:33:24.553Z,43.98
2023-02-21T15:35:57.810Z,43.92
2023-02-21T15:38:31.069Z,42.13
2023-02-21T15:41:04.356Z,42.70
2023-02-21T15:43:37.589Z,42.93
2023-02-21T15:46:10.765Z,42.73
2023-02-21T15:48:43.713Z,42.00
2023-02-21T15:51:15.594Z,41.02
2023-02-21T15:53:49.984Z,40.25
2023-02-21T15:56:26.491Z,42.13
2023-02-21T15:59:14.523Z,39.70
2023-02-21T16:01:45.467Z,38.30
2023-02-21T16:04:24.744Z,38.00
2023-02-21T16:07:01.414Z,40.08
2023-02-21T16:09:34.878Z,37.13
2023-02-21T16:12:16.922Z,37.05
2023-02-21T16:14:53.173Z,36.60
2023-02-21T16:17:41.422Z,37.88
2023-02-21T16:20:18.288Z,36.38
2023-02-21T16:25:31.645Z,34.85
2023-02-21T16:28:02.771Z,35.00
2023-02-21T16:30:47.661Z,34.85
2023-02-21T16:33:18.261Z,34.43
2023-02-21T16:38:43.555Z,33.35
2023-02-21T16:41:18.520Z,33.70
2023-02-21T16:43:49.775Z,32.93
2023-02-21T16:46:30.274Z,31.35
2023-02-21T16:49:01.148Z,31.62
2023-02-21T16:51:33.303Z,29.67
2023-02-21T16:54:04.516Z,28.98
2023-02-21T16:59:28.167Z,25.88
2023-02-21T17:01:59.049Z,27.98
2023-02-21T17:04:30.814Z,26.48
2023-02-21T17:07:07.276Z,26.65
2023-02-21T17:09:42.115Z,25.80
2023-02-21T17:12:15.408Z,26.07
2023-02-21T17:14:46.690Z,25.27
2023-02-21T17:17:18.922Z,24.67
2023-02-21T17:19:50.890Z,23.10
2023-02-21T17:22:21.763Z,23.92
2023-02-21T17:24:52.985Z,21.85
2023-02-21T17:27:23.679Z,20.80
2023-02-21T17:29:56.435Z,19.37
2023-02-21T17:32:28.176Z,17.67
2023-02-21T17:35:00.576Z,18.23
2023-02-21T17:37:31.380Z,18.32
2023-02-21T17:40:02.607Z,17.67
2023-02-21T17:42:34.042Z,16.95
2023-02-21T17:45:10.454Z,15.95
2023-02-21T17:47:42.930Z,17.42
2023-02-21T17:50:17.145Z,16.70
2023-02-21T17:52:48.136Z,15.95
2023-02-21T17:55:22.391Z,16.73
2023-02-21T17:57:57.018Z,16.17
2023-02-21T18:00:33.383Z,16.48
2023-02-21T18:03:05.276Z,16.00
2023-02-21T18:05:37.078Z,15.98
2023-02-21T18:08:08.533Z,15.40
2023-02-21T18:10:39.330Z,15.83
2023-02-21T18:13:10.072Z,16.37
2023-02-21T18:15:41.048Z,15.10
2023-02-21T18:18:11.921Z,14.68
2023-02-21T18:20:42.797Z,16.12
2023-02-21T18:23:13.615Z,16.37
2023-02-21T18:25:45.708Z,16.32
2023-02-21T18:28:16.652Z,16.62
2023-02-21T18:30:47.465Z,16.27
2023-02-21T18:33:18.397Z,16.32
2023-02-21T18:35:49.389Z,16.45
2023-02-21T18:38:20.518Z,15.70
2023-02-21T18:40:52.459Z,16.65
2023-02-21T18:43:25.881Z,15.20
2023-02-21T18:45:57.360Z,16.25
2023-02-21T18:48:28.834Z,16.97
2023-02-21T18:50:59.652Z,16.90
2023-02-21T18:53:30.353Z,16.25
2023-02-21T18:56:01.142Z,15.93
2023-02-21T18:58:32.069Z,17.27
2023-02-21T19:01:02.973Z,17.00
2023-02-21T19:03:33.875Z,16.82
2023-02-21T19:06:05.051Z,16.25
2023-02-21T19:08:35.756Z,16.77
2023-02-21T19:11:06.716Z,16.75
2023-02-21T19:13:37.635Z,16.12
2023-02-21T19:16:08.845Z,16.93
2023-02-21T19:18:39.619Z,16.77
2023-02-21T19:21:13.913Z,17.23
2023-02-21T19:23:45.805Z,17.35
2023-02-21T19:26:16.651Z,16.40
2023-02-21T19:28:48.443Z,17.57
2023-02-21T19:31:22.558Z,16.52
2023-02-21T19:33:53.465Z,16.82
2023-02-21T19:36:24.758Z,16.93
2023-02-21T19:38:55.784Z,17.10
2023-02-21T19:41:29.312Z,16.87
2023-02-21T19:44:00.153Z,17.23
2023-02-21T19:46:31.664Z,16.37
2023-02-21T19:49:02.644Z,16.97
2023-02-21T19:51:35.147Z,17.37
2023-02-21T19:54:06.187Z,17.35
2023-02-21T19:56:37.250Z,18.42
2023-02-21T19:59:08.711Z,18.00
2023-02-21T20:01:39.606Z,17.65
2023-02-21T20:04:10.680Z,18.60
2023-02-21T20:06:41.492Z,17.92
2023-02-21T20:09:13.160Z,17.75
2023-02-21T20:11:45.355Z,19.02
2023-02-21T20:14:17.685Z,19.15
2023-02-21T20:16:48.987Z,17.20
2023-02-21T20:19:19.888Z,18.25
2023-02-21T20:21:52.088Z,18.85
2023-02-21T20:24:23.520Z,18.80
2023-02-21T20:26:55.681Z,19.25
2023-02-21T20:29:26.911Z,19.55
2023-02-21T20:31:59.267Z,19.98
2023-02-21T20:34:30.064Z,20.08
2023-02-21T20:37:00.959Z,20.80
2023-02-21T20:39:32.768Z,20.68
2023-02-21T20:42:06.731Z,20.35
2023-02-21T20:44:39.663Z,19.15
2023-02-21T20:47:11.496Z,20.30
2023-02-21T20:49:43.856Z,19.85
2023-02-21T20:52:14.932Z,19.82
2023-02-21T20:54:46.446Z,19.77
2023-02-21T20:57:17.232Z,21.62
2023-02-21T20:59:48.943Z,20.43
2023-02-21T21:02:20.223Z,19.65
2023-02-21T21:04:50.899Z,20.85
2023-02-21T21:07:24.454Z,20.70
2023-02-21T21:09:55.360Z,20.05
2023-02-21T21:12:26.831Z,20.95
2023-02-21T21:14:57.909Z,20.57
2023-02-21T21:17:28.754Z,21.23
2023-02-21T21:19:59.641Z,20.70
2023-02-21T21:22:30.760Z,20.02
2023-02-21T21:25:01.704Z,20.92
2023-02-21T21:27:33.254Z,20.80
2023-02-21T21:30:05.037Z,21.62
2023-02-21T21:32:36.287Z,21.60
2023-02-21T21:35:08.430Z,21.95
2023-02-21T21:37:41.007Z,21.45
2023-02-21T21:40:18.652Z,22.50
2023-02-21T21:42:51.591Z,22.00
2023-02-21T21:45:25.223Z,21.68
2023-02-21T21:48:01.347Z,22.75
2023-02-21T21:50:32.058Z,22.67
2023-02-21T21:53:04.026Z,22.50
2023-02-21T21:55:36.232Z,21.90
2023-02-21T21:58:10.154Z,22.37
2023-02-21T22:00:42.824Z,22.45
2023-02-21T22:03:16.303Z,23.05
2023-02-21T22:05:50.412Z,22.17
2023-02-21T22:08:19.957Z,23.15
2023-02-21T22:10:52.259Z,23.25
2023-02-21T22:13:23.296Z,23.77
2023-02-21T22:15:54.253Z,23.65
2023-02-21T22:18:25.188Z,22.95
2023-02-21T22:20:56.190Z,23.20
2023-02-21T22:23:27.023Z,23.42
2023-02-21T22:25:58.457Z,24.10
2023-02-21T22:28:29.144Z,23.15
2023-02-21T22:30:59.914Z,23.38
2023-02-21T22:33:30.854Z,25.80
2023-02-21T22:36:03.375Z,25.75
2023-02-21T22:38:34.065Z,24.75
2023-02-21T22:41:05.769Z,23.98
2023-02-21T22:43:36.463Z,27.35
2023-02-21T22:46:09.892Z,27.27
2023-02-21T22:48:41.240Z,27.95
2023-02-21T22:51:11.968Z,28.77
2023-02-21T22:53:42.892Z,27.27
2023-02-21T22:56:16.248Z,25.10
2023-02-21T22:58:47.182Z,25.02
2023-02-21T23:01:19.347Z,25.52
2023-02-21T23:03:50.713Z,26.40
2023-02-21T23:06:21.580Z,25.30
2023-02-21T23:08:53.059Z,25.92
2023-02-21T23:11:28.029Z,25.08
2023-02-21T23:13:58.763Z,24.87
2023-02-21T23:16:29.508Z,25.00
2023-02-21T23:19:00.267Z,23.42
2023-02-21T23:21:33.897Z,24.25
2023-02-21T23:24:04.898Z,25.70
2023-02-21T23:26:35.660Z,27.70
2023-02-21T23:29:06.547Z,28.85
2023-02-21T23:31:37.406Z,29.37
2023-02-21T23:34:08.148Z,28.73
2023-02-21T23:36:40.802Z,27.95
2023-02-21T23:39:13.691Z,26.93
2023-02-21T23:41:47.515Z,29.45
2023-02-21T23:44:18.416Z,27.60
2023-02-21T23:46:50.556Z,29.30
2023-02-21T23:49:21.315Z,28.60
2023-02-21T23:51:53.405Z,29.23
2023-02-21T23:54:24.227Z,30.17
2023-02-21T23:56:55.031Z,28.67
2023-02-21T23:59:27.082Z,28.00
